Accueil
METAR-TAF:

METAR-TAF

Aéroports :

Aéroport de Catane-Fontanarossa

Catane, Italie

latitude: 37-28N, longitude: 015-03E, altitude: 11 m

Observation

Le bulletin a été fait il y a 25 minutes, à 00:20 UTC
Vent 2 kt de direction variable
Température 16°C
Humidité 88%
Pression 1022 hPa
Visibilité 10 km ou plus
pas de nuages en-dessous de 1500 mètres et pas de cumulonimbus.

METAR: LICC 260020Z VRB02KT CAVOK 16/14 Q1022

Heure: 02:45 (00:45 UTC)

Prévision

Le bulletin a été fait il y a 1 heure et 45 minutes, à 23:00 UTC
Prévision valable du 26 à 00 UTC au 26 à 24 UTC
Vent 7 kt de ouest/sud-ouest
Visibilité 10 km ou plus
pas de nuages en-dessous de 1500 mètres et pas de cumulonimbus.
Evoluant progressivement
du 26 à 08 UTC au 26 à 10 UTC
Vent 12 kt de est
Evoluant progressivement
du 26 à 18 UTC au 26 à 20 UTC
Vent 4 kt de direction variable

TAF: LICC 252300Z 2600/2624 24007KT CAVOK BECMG 2608/2610 08012KT BECMG 2618/2620 VRB04KT

Observations et prévisions météorologiques de plus de 4000 aéroports (messages METAR et TAF).

Les stations disponibles sont représentées par des disques jaunes et rouges sur la carte.

Passer la souris dessus pour voir le nom de la station.

Cliquer dessus pour voir les observations et prévisions météorologiques.

Pour changer de carte: cliquez sur les boutons verts avec une croix noire pour zoomer, sur le bouton vert avec un tiret pour effectuer un zoom arrière, ou sur les flèches vertes pour les cartes adjacentes.


METAR-TAF: